createdAt,value
2022-08-20T00:00:50.261Z,38.52
2022-08-20T00:02:06.876Z,38.28
2022-08-20T00:03:20.681Z,37.95
2022-08-20T00:04:32.180Z,38.27
2022-08-20T00:05:43.581Z,38.24
2022-08-20T00:06:53.440Z,37.98
2022-08-20T00:08:05.269Z,38.00
2022-08-20T00:09:12.493Z,38.01
2022-08-20T00:10:20.334Z,38.11
2022-08-20T00:11:29.184Z,38.35
2022-08-20T00:12:40.629Z,38.34
2022-08-20T00:13:53.978Z,38.21
2022-08-20T00:15:05.584Z,38.20
2022-08-20T00:16:15.513Z,37.94
2022-08-20T00:17:25.791Z,37.88
2022-08-20T00:18:38.424Z,37.74
2022-08-20T00:19:49.242Z,37.64
2022-08-20T00:20:59.714Z,37.53
2022-08-20T00:22:07.948Z,37.36
2022-08-20T00:23:16.999Z,37.48
2022-08-20T00:24:25.155Z,37.42
2022-08-20T00:25:33.644Z,37.35
2022-08-20T00:26:51.904Z,37.37
2022-08-20T00:28:05.966Z,37.29
2022-08-20T00:29:13.289Z,37.27
2022-08-20T00:30:26.280Z,37.08
2022-08-20T00:31:34.147Z,37.04
2022-08-20T00:32:59.632Z,36.99
2022-08-20T00:34:08.265Z,37.17
2022-08-20T00:35:17.851Z,37.21
2022-08-20T00:36:32.244Z,37.06
2022-08-20T00:37:42.927Z,36.84
2022-08-20T00:38:52.645Z,36.92
2022-08-20T00:40:02.709Z,36.81
2022-08-20T00:41:18.712Z,36.71
2022-08-20T00:42:27.631Z,36.73
2022-08-20T00:44:06.288Z,36.67
2022-08-20T00:45:13.841Z,36.78
2022-08-20T00:46:27.937Z,36.77
2022-08-20T00:47:51.174Z,36.66
2022-08-20T00:49:01.805Z,36.61
2022-08-20T00:50:14.135Z,36.53
2022-08-20T00:51:43.952Z,36.22
2022-08-20T00:52:54.157Z,36.07
2022-08-20T00:54:18.261Z,36.10
2022-08-20T00:55:29.728Z,36.12
2022-08-20T00:56:40.145Z,36.00
2022-08-20T00:58:00.692Z,35.83
2022-08-20T00:59:13.723Z,35.88
2022-08-20T01:00:26.815Z,35.87
2022-08-20T01:01:55.915Z,36.05
2022-08-20T01:03:10.969Z,35.94
2022-08-20T01:04:19.823Z,35.94
2022-08-20T01:05:30.352Z,35.83
2022-08-20T01:06:42.206Z,35.83
2022-08-20T01:07:56.069Z,35.64
2022-08-20T01:09:06.585Z,35.67
2022-08-20T01:10:14.982Z,35.50
2022-08-20T01:11:36.917Z,35.43
2022-08-20T01:12:58.947Z,35.25
2022-08-20T01:14:35.642Z,35.30
2022-08-20T01:15:46.220Z,35.23
2022-08-20T01:17:00.935Z,35.20
2022-08-20T01:18:08.633Z,35.16
2022-08-20T01:19:29.802Z,35.02
2022-08-20T01:20:43.663Z,34.70
2022-08-20T01:21:53.579Z,34.69
2022-08-20T01:23:29.928Z,34.69
2022-08-20T01:24:41.519Z,34.66
2022-08-20T01:25:55.132Z,34.67
2022-08-20T01:27:09.086Z,34.70
2022-08-20T01:28:18.507Z,34.54
2022-08-20T01:29:28.941Z,34.48
2022-08-20T01:30:39.786Z,34.50
2022-08-20T01:31:47.707Z,34.34
2022-08-20T01:32:56.443Z,34.30
2022-08-20T01:34:06.523Z,34.28
2022-08-20T01:35:14.012Z,34.15
2022-08-20T01:36:26.111Z,34.14
2022-08-20T01:37:35.992Z,34.05
2022-08-20T01:38:53.193Z,34.00
2022-08-20T01:40:09.199Z,34.02
2022-08-20T01:41:31.945Z,33.98
2022-08-20T01:42:53.995Z,33.88
2022-08-20T01:44:13.863Z,33.84
2022-08-20T01:45:31.478Z,33.81
2022-08-20T01:46:43.629Z,33.75
2022-08-20T01:47:53.686Z,33.60
2022-08-20T01:49:21.059Z,33.51
2022-08-20T01:50:36.300Z,33.45
2022-08-20T01:51:45.972Z,33.32
2022-08-20T01:53:06.436Z,33.12
2022-08-20T01:54:15.467Z,32.90
2022-08-20T01:57:22.043Z,32.61
2022-08-20T01:58:31.287Z,32.45
2022-08-20T01:59:41.205Z,32.35
2022-08-20T02:00:51.103Z,32.12
2022-08-20T02:02:04.709Z,31.96
2022-08-20T02:04:50.548Z,31.70
2022-08-20T02:06:03.651Z,31.59
2022-08-20T02:07:17.129Z,31.47
2022-08-20T02:08:29.679Z,31.40
2022-08-20T02:09:41.621Z,31.29
2022-08-20T02:10:50.384Z,31.17
2022-08-20T02:12:00.786Z,31.02
2022-08-20T02:13:11.778Z,30.89
2022-08-20T02:14:22.803Z,30.81
2022-08-20T02:15:37.091Z,30.65
2022-08-20T02:16:54.698Z,30.47
2022-08-20T02:18:11.944Z,30.26
2022-08-20T02:21:06.488Z,29.78
2022-08-20T02:22:20.515Z,29.64
2022-08-20T02:23:29.466Z,29.49
2022-08-20T02:24:37.605Z,29.35
2022-08-20T02:25:48.634Z,29.22
2022-08-20T02:26:57.590Z,29.09
2022-08-20T02:28:10.826Z,28.97
2022-08-20T02:29:18.784Z,28.88
2022-08-20T02:30:36.534Z,28.79
2022-08-20T02:32:24.375Z,28.68
2022-08-20T02:33:19.399Z,28.56
2022-08-20T02:34:27.451Z,28.47
2022-08-20T02:35:37.253Z,28.38
2022-08-20T02:36:47.773Z,28.31
2022-08-20T02:37:56.270Z,28.24
2022-08-20T02:39:08.166Z,28.17
2022-08-20T02:40:18.973Z,28.09
2022-08-20T02:41:42.751Z,28.02
2022-08-20T02:42:51.706Z,27.94
2022-08-20T02:44:01.115Z,27.88
2022-08-20T02:45:09.778Z,27.83
2022-08-20T02:46:25.055Z,27.78
2022-08-20T02:47:36.846Z,27.73
2022-08-20T02:48:46.281Z,27.67
2022-08-20T02:49:56.360Z,27.63
2022-08-20T02:51:07.092Z,27.59
2022-08-20T02:52:14.879Z,27.54
2022-08-20T02:53:42.333Z,27.50
2022-08-20T02:54:59.398Z,27.43
2022-08-20T02:56:12.943Z,27.38
2022-08-20T02:57:32.040Z,27.33
2022-08-20T02:58:58.354Z,27.26
2022-08-20T03:00:22.047Z,27.20
2022-08-20T03:01:33.486Z,27.12
2022-08-20T03:02:43.014Z,27.08
2022-08-20T03:03:52.454Z,27.02
2022-08-20T03:05:03.993Z,26.98
2022-08-20T03:06:13.053Z,26.94
2022-08-20T03:07:21.538Z,26.90
2022-08-20T03:08:30.892Z,26.87
2022-08-20T03:09:39.721Z,26.84
2022-08-20T03:10:49.479Z,26.81
2022-08-20T03:11:59.254Z,26.78
2022-08-20T03:13:12.589Z,26.75
2022-08-20T03:14:19.710Z,26.72
2022-08-20T03:15:28.557Z,26.70
2022-08-20T03:16:38.605Z,26.68
2022-08-20T03:17:48.833Z,26.65
2022-08-20T03:18:59.726Z,26.62
2022-08-20T03:20:09.851Z,26.60
2022-08-20T03:21:20.546Z,26.57
2022-08-20T03:22:28.766Z,26.54
2022-08-20T03:23:40.346Z,26.51
2022-08-20T03:24:54.017Z,26.48
2022-08-20T03:26:13.941Z,26.46
2022-08-20T03:27:35.506Z,26.43
2022-08-20T03:28:46.267Z,26.40
2022-08-20T03:30:02.944Z,26.38
2022-08-20T03:31:17.049Z,26.35
2022-08-20T03:32:25.905Z,26.33
2022-08-20T03:33:35.121Z,26.31
2022-08-20T03:34:42.400Z,26.29
2022-08-20T03:35:51.325Z,26.26
2022-08-20T03:37:02.202Z,26.24
2022-08-20T03:38:13.269Z,26.22
2022-08-20T03:39:21.529Z,26.19
2022-08-20T03:40:38.508Z,26.16
2022-08-20T03:41:50.528Z,26.13
2022-08-20T03:43:02.388Z,26.12
2022-08-20T03:44:11.503Z,26.11
2022-08-20T03:45:21.545Z,26.10
2022-08-20T03:46:29.906Z,26.07
2022-08-20T03:47:39.598Z,26.04
2022-08-20T03:48:48.715Z,26.03
2022-08-20T03:50:06.742Z,26.01
2022-08-20T03:51:18.927Z,26.00
2022-08-20T03:52:28.072Z,25.98
2022-08-20T03:53:37.695Z,25.94
2022-08-20T03:54:48.027Z,25.93
2022-08-20T03:56:01.758Z,25.90
2022-08-20T03:57:17.660Z,25.89
2022-08-20T03:58:34.921Z,25.88
2022-08-20T03:59:46.345Z,25.83
2022-08-20T04:00:59.334Z,25.77
2022-08-20T04:02:10.781Z,25.70
2022-08-20T04:03:18.684Z,25.64
2022-08-20T04:04:27.243Z,25.58
2022-08-20T04:05:38.622Z,25.51
2022-08-20T04:06:48.996Z,25.44
2022-08-20T04:08:02.954Z,25.37
2022-08-20T04:09:12.730Z,25.30
2022-08-20T04:10:19.747Z,25.25
2022-08-20T04:11:27.692Z,25.19
2022-08-20T04:12:36.279Z,25.14
2022-08-20T04:13:50.164Z,25.08
2022-08-20T04:15:02.845Z,25.05
2022-08-20T04:16:14.785Z,25.02
2022-08-20T04:17:25.860Z,24.99
2022-08-20T04:18:33.496Z,24.95
2022-08-20T04:19:46.198Z,24.88
2022-08-20T04:20:55.629Z,24.83
2022-08-20T04:22:04.561Z,24.79
2022-08-20T04:23:23.622Z,24.75
2022-08-20T04:25:08.939Z,24.73
2022-08-20T04:26:47.218Z,24.68
2022-08-20T04:27:57.721Z,24.65
2022-08-20T04:29:07.411Z,24.62
2022-08-20T04:30:51.727Z,24.59
2022-08-20T04:32:05.609Z,24.57
2022-08-20T04:33:19.238Z,24.56
2022-08-20T04:34:43.285Z,24.53
2022-08-20T04:36:04.910Z,24.50
2022-08-20T04:37:16.979Z,24.49
2022-08-20T04:40:51.771Z,24.45
2022-08-20T04:42:05.818Z,24.41
2022-08-20T04:43:16.388Z,24.41
2022-08-20T04:44:24.568Z,24.39
2022-08-20T04:45:35.347Z,24.36
2022-08-20T04:46:50.874Z,24.34
2022-08-20T04:48:11.726Z,24.32
2022-08-20T04:49:28.957Z,24.30
2022-08-20T04:50:48.954Z,24.26
2022-08-20T04:52:02.895Z,24.23
2022-08-20T04:53:25.765Z,24.20
2022-08-20T04:54:36.189Z,24.17
2022-08-20T04:55:49.048Z,24.13
2022-08-20T04:56:58.920Z,24.10
2022-08-20T04:58:14.959Z,24.08
2022-08-20T04:59:24.356Z,24.06
2022-08-20T05:00:33.427Z,24.04
2022-08-20T05:01:51.218Z,24.01
2022-08-20T05:03:00.806Z,23.96
2022-08-20T05:04:12.604Z,23.94
2022-08-20T05:07:32.484Z,23.86
2022-08-20T05:08:47.489Z,23.84
2022-08-20T05:10:00.436Z,23.83
2022-08-20T05:11:34.410Z,23.82
2022-08-20T05:12:56.857Z,23.79
2022-08-20T05:14:08.313Z,23.74
2022-08-20T05:15:19.836Z,23.70
2022-08-20T05:16:29.901Z,23.69
2022-08-20T05:17:41.919Z,23.66
2022-08-20T05:18:52.474Z,23.62
2022-08-20T05:20:06.231Z,23.59
2022-08-20T05:21:20.054Z,23.57
2022-08-20T05:22:31.100Z,23.55
2022-08-20T05:23:44.504Z,23.52
2022-08-20T05:24:53.689Z,23.49
2022-08-20T05:26:05.062Z,23.46
2022-08-20T05:27:24.643Z,23.43
2022-08-20T05:28:49.972Z,23.41
2022-08-20T05:30:13.472Z,23.39
2022-08-20T05:31:35.063Z,23.37
2022-08-20T05:32:44.860Z,23.35
2022-08-20T05:33:53.219Z,23.33
2022-08-20T05:35:02.892Z,23.30
2022-08-20T05:36:12.861Z,23.28
2022-08-20T05:37:24.217Z,23.24
2022-08-20T05:38:38.323Z,23.21
2022-08-20T05:39:50.251Z,23.16
2022-08-20T05:41:04.354Z,23.12
2022-08-20T05:42:16.156Z,23.09
2022-08-20T05:43:25.963Z,23.07
2022-08-20T05:44:34.208Z,23.06
2022-08-20T05:45:47.857Z,23.04
2022-08-20T05:46:58.299Z,23.01
2022-08-20T05:48:19.881Z,23.00
2022-08-20T05:49:29.667Z,22.97
2022-08-20T05:50:40.770Z,22.93
2022-08-20T05:51:52.560Z,22.91
2022-08-20T05:53:03.236Z,22.88
2022-08-20T05:54:11.242Z,22.85
2022-08-20T05:55:18.541Z,22.84
2022-08-20T05:56:26.840Z,22.81
2022-08-20T05:57:34.501Z,22.79
2022-08-20T05:58:43.423Z,22.78
2022-08-20T05:59:50.592Z,22.77
2022-08-20T06:01:00.087Z,22.76
2022-08-20T06:02:29.785Z,22.74
2022-08-20T06:04:00.122Z,22.70
2022-08-20T06:05:09.601Z,22.65
2022-08-20T06:06:39.010Z,22.63
2022-08-20T06:07:48.289Z,22.61
2022-08-20T06:08:58.739Z,22.59
2022-08-20T06:10:12.071Z,22.59
2022-08-20T06:11:20.350Z,22.55
2022-08-20T06:12:28.226Z,22.53
2022-08-20T06:13:36.693Z,22.49
2022-08-20T06:14:46.677Z,22.48
2022-08-20T06:15:54.397Z,22.46
2022-08-20T06:17:13.457Z,22.41
2022-08-20T06:18:27.753Z,22.38
2022-08-20T06:19:38.403Z,22.37
2022-08-20T06:20:48.181Z,22.36
2022-08-20T06:21:58.376Z,22.36
2022-08-20T06:23:07.998Z,22.35
2022-08-20T06:24:16.285Z,22.34
2022-08-20T06:25:25.975Z,22.31
2022-08-20T06:26:36.629Z,22.29
2022-08-20T06:27:46.210Z,22.27
2022-08-20T06:28:56.414Z,22.25
2022-08-20T06:30:06.405Z,22.23
2022-08-20T06:31:17.471Z,22.21
2022-08-20T06:32:32.070Z,22.19
2022-08-20T06:33:42.023Z,22.16
2022-08-20T06:34:53.354Z,22.13
2022-08-20T06:36:02.770Z,22.11
2022-08-20T06:37:17.707Z,22.09
2022-08-20T06:38:26.891Z,22.08
2022-08-20T06:39:36.406Z,22.05
2022-08-20T06:40:45.611Z,22.03
2022-08-20T06:41:55.140Z,22.00
2022-08-20T06:43:05.537Z,21.96
2022-08-20T06:44:15.499Z,21.94
2022-08-20T06:45:26.708Z,21.92
2022-08-20T06:46:40.463Z,21.91
2022-08-20T06:47:51.478Z,21.87
2022-08-20T06:49:02.548Z,21.85
2022-08-20T06:50:14.374Z,21.86
2022-08-20T06:51:23.491Z,21.83
2022-08-20T06:52:51.679Z,21.81
2022-08-20T06:54:03.463Z,21.78
2022-08-20T06:55:14.518Z,21.76
2022-08-20T06:56:22.129Z,21.74
2022-08-20T06:57:29.875Z,21.72
2022-08-20T06:58:39.205Z,21.73
2022-08-20T06:59:54.408Z,21.72
2022-08-20T07:01:10.383Z,21.71
2022-08-20T07:02:19.049Z,21.69
2022-08-20T07:03:27.974Z,21.67
2022-08-20T07:04:38.791Z,21.66
2022-08-20T07:05:47.661Z,21.63
2022-08-20T07:06:55.466Z,21.61
2022-08-20T07:08:02.387Z,21.58
2022-08-20T07:09:10.807Z,21.58
2022-08-20T07:10:18.317Z,21.58
2022-08-20T07:11:28.897Z,21.56
2022-08-20T07:12:37.800Z,21.55
2022-08-20T07:13:46.699Z,21.54
2022-08-20T07:14:54.041Z,21.53
2022-08-20T07:16:02.859Z,21.50
2022-08-20T07:17:12.224Z,21.48
2022-08-20T07:18:28.874Z,21.45
2022-08-20T07:19:37.743Z,21.43
2022-08-20T07:20:46.047Z,21.41
2022-08-20T07:21:53.149Z,21.39
2022-08-20T07:23:00.828Z,21.38
2022-08-20T07:24:09.188Z,21.37
2022-08-20T07:25:18.428Z,21.36
2022-08-20T07:26:26.001Z,21.34
2022-08-20T07:27:33.404Z,21.33
2022-08-20T07:28:41.971Z,21.32
2022-08-20T07:30:12.530Z,21.31
2022-08-20T07:31:38.286Z,21.28
2022-08-20T07:32:50.147Z,21.26
2022-08-20T07:33:57.485Z,21.24
2022-08-20T07:35:09.686Z,21.24
2022-08-20T07:36:16.642Z,21.22
2022-08-20T07:37:25.041Z,21.22
2022-08-20T07:38:32.263Z,21.21
2022-08-20T07:39:42.459Z,21.20
2022-08-20T07:40:50.106Z,21.18
2022-08-20T07:42:04.429Z,21.16
2022-08-20T07:43:12.105Z,21.15
2022-08-20T07:44:22.760Z,21.15
2022-08-20T07:45:40.264Z,21.13
2022-08-20T07:46:56.646Z,21.14
2022-08-20T07:48:11.046Z,21.13
2022-08-20T07:49:19.497Z,21.13
2022-08-20T07:50:29.432Z,21.11
2022-08-20T07:51:38.064Z,21.10
2022-08-20T07:52:46.973Z,21.10
2022-08-20T07:53:59.399Z,21.10
2022-08-20T07:55:08.053Z,21.08
2022-08-20T07:56:18.074Z,21.07
2022-08-20T07:57:25.397Z,21.07
2022-08-20T07:58:33.499Z,21.05
2022-08-20T07:59:42.463Z,21.04
2022-08-20T08:00:51.156Z,21.05
2022-08-20T08:02:00.513Z,21.03
2022-08-20T08:03:11.828Z,21.01
2022-08-20T08:04:19.217Z,21.01
2022-08-20T08:05:27.628Z,20.99
2022-08-20T08:06:37.832Z,20.97
2022-08-20T08:07:44.968Z,20.94
2022-08-20T08:08:52.621Z,20.92
2022-08-20T08:10:00.192Z,20.91
2022-08-20T08:11:09.945Z,20.91
2022-08-20T08:12:19.103Z,20.89
2022-08-20T08:13:28.728Z,20.88
2022-08-20T08:14:36.287Z,20.89
2022-08-20T08:15:46.179Z,20.90
2022-08-20T08:16:54.672Z,20.90
2022-08-20T08:18:09.132Z,20.89
2022-08-20T08:19:16.676Z,20.89
2022-08-20T08:20:24.768Z,20.87
2022-08-20T08:21:34.183Z,20.87
2022-08-20T08:22:44.116Z,20.87
2022-08-20T08:23:54.857Z,20.85
2022-08-20T08:25:05.872Z,20.84
2022-08-20T08:26:16.187Z,20.84
2022-08-20T08:27:29.027Z,20.83
2022-08-20T08:28:38.262Z,20.82
2022-08-20T08:29:45.597Z,20.82
2022-08-20T08:30:53.133Z,20.80
2022-08-20T08:32:04.000Z,20.79
2022-08-20T08:33:32.515Z,20.78
2022-08-20T08:34:40.514Z,20.76
2022-08-20T08:35:48.110Z,20.74
2022-08-20T08:36:57.102Z,20.74
2022-08-20T08:38:04.578Z,20.74
2022-08-20T08:39:14.820Z,20.73
2022-08-20T08:40:24.901Z,20.72
2022-08-20T08:41:37.459Z,20.71
2022-08-20T08:42:59.613Z,20.69
2022-08-20T08:44:27.017Z,20.68
2022-08-20T08:45:40.590Z,20.66
2022-08-20T08:46:51.860Z,20.66
2022-08-20T08:48:01.294Z,20.65
2022-08-20T08:49:14.705Z,20.64
2022-08-20T08:50:50.197Z,20.62
2022-08-20T08:52:06.750Z,20.60
2022-08-20T08:53:28.779Z,20.58
2022-08-20T08:54:37.756Z,20.56
2022-08-20T08:55:47.292Z,20.54
2022-08-20T08:56:56.931Z,20.52
2022-08-20T08:58:16.475Z,20.51
2022-08-20T08:59:48.501Z,20.51
2022-08-20T09:01:02.085Z,20.49
2022-08-20T09:02:20.310Z,20.47
2022-08-20T09:03:30.534Z,20.43
2022-08-20T09:04:40.334Z,20.40
2022-08-20T09:06:01.365Z,20.36
2022-08-20T09:07:13.319Z,20.33
2022-08-20T09:08:25.617Z,20.32
2022-08-20T09:09:38.498Z,20.31
2022-08-20T09:10:47.309Z,20.28
2022-08-20T09:11:57.195Z,20.27
2022-08-20T09:13:05.561Z,20.26
2022-08-20T09:14:13.123Z,20.25
2022-08-20T09:15:20.892Z,20.24
2022-08-20T09:16:28.884Z,20.25
2022-08-20T09:17:54.555Z,20.23
2022-08-20T09:19:06.115Z,20.23
2022-08-20T09:20:13.700Z,20.23
2022-08-20T09:21:20.855Z,20.23
2022-08-20T09:22:28.281Z,20.24
2022-08-20T09:23:38.875Z,20.24
2022-08-20T09:24:46.062Z,20.24
2022-08-20T09:25:53.192Z,20.24
2022-08-20T09:27:00.829Z,20.24
2022-08-20T09:28:10.886Z,20.23
2022-08-20T09:29:21.162Z,20.22
2022-08-20T09:30:31.408Z,20.22
2022-08-20T09:31:40.957Z,20.22
2022-08-20T09:32:48.316Z,20.22
2022-08-20T09:33:59.312Z,20.22
2022-08-20T09:35:09.538Z,20.23
2022-08-20T09:36:25.613Z,20.25
2022-08-20T09:37:42.658Z,20.24
2022-08-20T09:38:53.228Z,20.25
2022-08-20T09:40:02.868Z,20.26
2022-08-20T09:41:12.093Z,20.25
2022-08-20T09:42:24.925Z,20.25
2022-08-20T09:43:35.069Z,20.25
2022-08-20T09:44:42.863Z,20.25
2022-08-20T09:45:49.948Z,20.24
2022-08-20T09:47:00.507Z,20.24
2022-08-20T09:48:10.486Z,20.24
2022-08-20T09:49:21.150Z,20.23
2022-08-20T09:50:32.422Z,20.23
2022-08-20T09:51:40.011Z,20.24
2022-08-20T09:52:50.605Z,20.24
2022-08-20T09:54:00.219Z,20.23
2022-08-20T09:55:16.078Z,20.22
2022-08-20T09:56:23.357Z,20.21
2022-08-20T09:57:30.636Z,20.21
2022-08-20T09:58:52.327Z,20.21
2022-08-20T10:00:03.159Z,20.20
2022-08-20T10:01:22.670Z,20.19
2022-08-20T10:02:29.946Z,20.19
2022-08-20T10:03:39.740Z,20.20
2022-08-20T10:04:53.629Z,20.20
2022-08-20T10:06:04.005Z,20.18
2022-08-20T10:07:13.686Z,20.18
2022-08-20T10:08:23.555Z,20.17
2022-08-20T10:09:32.404Z,20.17
2022-08-20T10:10:41.239Z,20.16
2022-08-20T10:11:48.778Z,20.15
2022-08-20T10:12:56.598Z,20.15
2022-08-20T10:14:06.682Z,20.15
2022-08-20T10:15:14.252Z,20.15
2022-08-20T10:16:21.529Z,20.14
2022-08-20T10:17:30.389Z,20.14
2022-08-20T10:18:37.971Z,20.12
2022-08-20T10:19:46.203Z,20.12
2022-08-20T10:20:53.715Z,20.11
2022-08-20T10:22:01.512Z,20.07
2022-08-20T10:23:12.103Z,20.04
2022-08-20T10:24:19.649Z,20.03
2022-08-20T10:25:30.350Z,20.01
2022-08-20T10:26:40.405Z,19.99
2022-08-20T10:27:47.722Z,19.98
2022-08-20T10:28:55.027Z,19.98
2022-08-20T10:30:02.449Z,19.96
2022-08-20T10:31:13.048Z,19.94
2022-08-20T10:32:20.430Z,19.93
2022-08-20T10:33:28.512Z,19.91
2022-08-20T10:34:36.925Z,19.90
2022-08-20T10:35:45.438Z,19.89
2022-08-20T10:36:54.407Z,19.86
2022-08-20T10:38:03.316Z,19.83
2022-08-20T10:39:12.504Z,19.81
2022-08-20T10:40:23.204Z,19.78
2022-08-20T10:41:36.147Z,19.77
2022-08-20T10:42:48.790Z,19.76
2022-08-20T10:43:59.244Z,19.74
2022-08-20T10:45:06.689Z,19.72
2022-08-20T10:46:16.863Z,19.71
2022-08-20T10:47:27.982Z,19.71
2022-08-20T10:48:35.196Z,19.70
2022-08-20T10:49:44.512Z,19.68
2022-08-20T10:50:52.774Z,19.68
2022-08-20T10:52:00.886Z,19.67
2022-08-20T10:53:14.245Z,19.67
2022-08-20T10:54:22.980Z,19.69
2022-08-20T10:55:31.052Z,19.72
2022-08-20T10:56:39.729Z,19.74
2022-08-20T10:57:47.439Z,19.78
2022-08-20T10:58:56.190Z,19.82
2022-08-20T11:00:06.811Z,19.84
2022-08-20T11:01:31.350Z,19.84
2022-08-20T11:02:44.033Z,19.83
2022-08-20T11:03:54.267Z,19.81
2022-08-20T11:05:04.325Z,19.80
2022-08-20T11:06:12.203Z,19.78
2022-08-20T11:07:55.183Z,19.78
2022-08-20T11:08:57.166Z,19.74
2022-08-20T11:10:04.647Z,19.72
2022-08-20T11:11:12.530Z,19.70
2022-08-20T11:12:20.875Z,19.65
2022-08-20T11:13:29.049Z,19.62
2022-08-20T11:14:37.202Z,19.60
2022-08-20T11:15:47.563Z,19.58
2022-08-20T11:16:58.145Z,19.57
2022-08-20T11:18:07.155Z,19.56
2022-08-20T11:19:16.571Z,19.56
2022-08-20T11:20:23.415Z,19.54
2022-08-20T11:21:30.688Z,19.51
2022-08-20T11:22:38.020Z,19.50
2022-08-20T11:23:46.505Z,19.48
2022-08-20T11:24:54.344Z,19.47
2022-08-20T11:26:06.450Z,19.45
2022-08-20T11:27:19.269Z,19.44
2022-08-20T11:28:32.280Z,19.43
2022-08-20T11:29:40.829Z,19.41
2022-08-20T11:30:51.298Z,19.42
2022-08-20T11:31:58.530Z,19.42
2022-08-20T11:33:06.443Z,19.43
2022-08-20T11:34:14.585Z,19.44
2022-08-20T11:35:42.076Z,19.45
2022-08-20T11:36:53.683Z,19.45
2022-08-20T11:38:02.369Z,19.45
2022-08-20T11:39:09.944Z,19.45
2022-08-20T11:40:17.854Z,19.45
2022-08-20T11:41:26.173Z,19.46
2022-08-20T11:42:33.784Z,19.47
2022-08-20T11:43:41.122Z,19.48
2022-08-20T11:44:49.543Z,19.49
2022-08-20T11:45:58.063Z,19.50
2022-08-20T11:47:07.305Z,19.52
2022-08-20T11:48:14.838Z,19.53
2022-08-20T11:49:22.302Z,19.54
2022-08-20T11:50:31.915Z,19.56
2022-08-20T11:51:49.871Z,19.58
2022-08-20T11:53:01.210Z,19.60
2022-08-20T11:54:10.733Z,19.61
2022-08-20T11:55:19.264Z,19.63
2022-08-20T11:56:26.134Z,19.64
2022-08-20T11:57:35.496Z,19.64
2022-08-20T11:58:43.127Z,19.66
2022-08-20T11:59:55.063Z,19.67
2022-08-20T12:01:03.328Z,19.68
2022-08-20T12:02:12.500Z,19.67
2022-08-20T12:03:20.709Z,19.68
2022-08-20T12:04:27.820Z,19.70
2022-08-20T12:05:37.220Z,19.71
2022-08-20T12:06:45.508Z,19.71
2022-08-20T12:07:57.041Z,19.71
2022-08-20T12:09:05.869Z,19.73
2022-08-20T12:10:16.692Z,19.72
2022-08-20T12:11:23.378Z,19.71
2022-08-20T12:12:33.271Z,19.71
2022-08-20T12:13:48.974Z,19.74
2022-08-20T12:14:58.483Z,19.74
2022-08-20T12:16:06.592Z,19.73
2022-08-20T12:17:22.878Z,19.73
2022-08-20T12:18:30.069Z,19.72
2022-08-20T12:19:41.981Z,19.72
2022-08-20T12:20:52.133Z,19.73
2022-08-20T12:21:59.280Z,19.73
2022-08-20T12:23:27.171Z,19.72
2022-08-20T12:24:35.893Z,19.73
2022-08-20T12:25:43.245Z,19.73
2022-08-20T12:26:50.683Z,19.72
2022-08-20T12:28:00.826Z,19.72
2022-08-20T12:29:08.371Z,19.72
2022-08-20T12:30:18.294Z,19.72
2022-08-20T12:31:26.718Z,19.71
2022-08-20T12:32:34.497Z,19.70
2022-08-20T12:33:41.386Z,19.68
2022-08-20T12:34:49.128Z,19.67
2022-08-20T12:35:57.067Z,19.66
2022-08-20T12:37:06.496Z,19.66
2022-08-20T12:38:13.871Z,19.65
2022-08-20T12:39:20.977Z,19.65
2022-08-20T12:40:32.172Z,19.67
2022-08-20T12:41:43.536Z,19.67
2022-08-20T12:42:52.365Z,19.66
2022-08-20T12:44:01.112Z,19.65
2022-08-20T12:45:11.209Z,19.63
2022-08-20T12:46:20.338Z,19.62
2022-08-20T12:47:32.767Z,19.59
2022-08-20T12:48:42.002Z,19.58
2022-08-20T12:49:52.629Z,19.57
2022-08-20T12:51:01.542Z,19.55
2022-08-20T12:52:12.929Z,19.54
2022-08-20T12:53:23.785Z,19.53
2022-08-20T12:54:33.925Z,19.52
2022-08-20T12:55:41.220Z,19.51
2022-08-20T12:56:49.609Z,19.52
2022-08-20T12:58:01.791Z,19.53
2022-08-20T12:59:09.658Z,19.53
2022-08-20T13:00:29.891Z,19.54
2022-08-20T13:01:37.124Z,19.54
2022-08-20T13:02:44.350Z,19.54
2022-08-20T13:03:53.177Z,19.55
2022-08-20T13:05:04.938Z,19.57
2022-08-20T13:06:16.620Z,19.59
2022-08-20T13:07:23.722Z,19.60
2022-08-20T13:08:32.880Z,19.61
2022-08-20T13:09:40.632Z,19.63
2022-08-20T13:10:50.745Z,19.64
2022-08-20T13:12:00.707Z,19.64
2022-08-20T13:13:10.253Z,19.65
2022-08-20T13:14:19.090Z,19.64
2022-08-20T13:15:28.340Z,19.63
2022-08-20T13:16:35.398Z,19.64
2022-08-20T13:17:47.319Z,19.65
2022-08-20T13:18:57.927Z,19.64
2022-08-20T13:20:08.233Z,19.65
2022-08-20T13:21:16.170Z,19.66
2022-08-20T13:22:23.726Z,19.67
2022-08-20T13:23:32.160Z,19.67
2022-08-20T13:24:40.460Z,19.68
2022-08-20T13:25:47.758Z,19.68
2022-08-20T13:26:56.278Z,19.68
2022-08-20T13:28:06.364Z,19.69
2022-08-20T13:29:15.165Z,19.71
2022-08-20T13:30:22.723Z,19.72
2022-08-20T13:31:30.900Z,19.72
2022-08-20T13:32:38.679Z,19.73
2022-08-20T13:33:49.194Z,19.76
2022-08-20T13:34:57.677Z,19.78
2022-08-20T13:36:07.936Z,19.81
2022-08-20T13:37:23.110Z,19.85
2022-08-20T13:38:36.354Z,19.91
2022-08-20T13:39:46.890Z,19.96
2022-08-20T13:40:54.373Z,20.03
2022-08-20T13:42:02.654Z,20.09
2022-08-20T13:43:12.784Z,20.16
2022-08-20T13:44:21.323Z,20.24
2022-08-20T13:45:42.640Z,20.31
2022-08-20T13:46:51.999Z,20.38
2022-08-20T13:48:00.391Z,20.44
2022-08-20T13:49:08.075Z,20.49
2022-08-20T13:50:20.724Z,20.52
2022-08-20T13:51:30.792Z,20.57
2022-08-20T13:52:39.462Z,20.65
2022-08-20T13:53:50.703Z,20.76
2022-08-20T13:54:59.848Z,20.90
2022-08-20T13:56:10.709Z,21.02
2022-08-20T13:57:21.175Z,21.16
2022-08-20T13:58:29.845Z,21.31
2022-08-20T13:59:39.224Z,21.46
2022-08-20T14:00:46.913Z,21.62
2022-08-20T14:01:54.375Z,21.77
2022-08-20T14:03:05.107Z,21.95
2022-08-20T14:04:12.443Z,22.11
2022-08-20T14:05:19.642Z,22.24
2022-08-20T14:06:26.845Z,22.37
2022-08-20T14:07:34.084Z,22.50
2022-08-20T14:08:41.395Z,22.64
2022-08-20T14:09:55.045Z,22.77
2022-08-20T14:11:03.426Z,22.89
2022-08-20T14:12:13.431Z,22.97
2022-08-20T14:13:22.447Z,23.06
2022-08-20T14:14:29.796Z,23.15
2022-08-20T14:15:38.521Z,23.26
2022-08-20T14:16:45.689Z,23.37
2022-08-20T14:17:57.042Z,23.47
2022-08-20T14:19:05.837Z,23.58
2022-08-20T14:20:17.121Z,23.64
2022-08-20T14:21:27.453Z,23.73
2022-08-20T14:22:36.583Z,23.79
2022-08-20T14:23:46.051Z,23.82
2022-08-20T14:24:54.966Z,23.81
2022-08-20T14:26:02.210Z,23.83
2022-08-20T14:27:10.421Z,23.86
2022-08-20T14:28:21.167Z,23.87
2022-08-20T14:29:33.173Z,23.86
2022-08-20T14:30:44.813Z,23.87
2022-08-20T14:31:52.487Z,23.95
2022-08-20T14:33:00.509Z,24.03
2022-08-20T14:34:11.869Z,24.07
2022-08-20T14:35:20.192Z,24.09
2022-08-20T14:36:27.554Z,24.13
2022-08-20T14:37:36.511Z,24.21
2022-08-20T14:38:47.059Z,24.36
2022-08-20T14:39:58.617Z,24.52
2022-08-20T14:41:06.767Z,24.67
2022-08-20T14:42:14.936Z,24.83
2022-08-20T14:43:24.095Z,25.01
2022-08-20T14:44:32.942Z,25.17
2022-08-20T14:45:40.511Z,25.32
2022-08-20T14:46:48.012Z,25.46
2022-08-20T14:48:01.892Z,25.57
2022-08-20T14:49:09.243Z,25.68
2022-08-20T14:50:23.625Z,25.75
2022-08-20T14:51:32.733Z,25.88
2022-08-20T14:52:43.974Z,26.03
2022-08-20T14:53:56.443Z,26.18
2022-08-20T14:55:08.150Z,26.28
2022-08-20T14:56:17.165Z,26.36
2022-08-20T14:57:24.476Z,26.47
2022-08-20T14:58:32.241Z,26.53
2022-08-20T14:59:40.052Z,26.48
2022-08-20T15:00:49.993Z,26.48
2022-08-20T15:01:58.574Z,26.47
2022-08-20T15:03:06.342Z,26.43
2022-08-20T15:04:14.641Z,26.41
2022-08-20T15:05:22.757Z,26.43
2022-08-20T15:06:30.798Z,26.45
2022-08-20T15:07:41.380Z,26.47
2022-08-20T15:08:48.831Z,26.50
2022-08-20T15:09:56.409Z,26.47
2022-08-20T15:11:06.011Z,26.44
2022-08-20T15:12:15.355Z,26.50
2022-08-20T15:13:22.605Z,26.58
2022-08-20T15:14:31.083Z,26.68
2022-08-20T15:15:41.726Z,26.75
2022-08-20T15:16:50.566Z,26.80
2022-08-20T15:18:02.316Z,26.80
2022-08-20T15:19:11.229Z,26.81
2022-08-20T15:20:21.520Z,26.77
2022-08-20T15:21:29.769Z,26.76
2022-08-20T15:22:55.624Z,26.68
2022-08-20T15:24:06.144Z,26.66
2022-08-20T15:25:36.220Z,26.69
2022-08-20T15:26:45.526Z,26.63
2022-08-20T15:28:01.603Z,26.65
2022-08-20T15:29:12.708Z,26.68
2022-08-20T15:30:32.486Z,26.85